Floral Park, New York
Current Conditions -  °F | °C
As of 6:51 AM on Tuesday 27 Jan 2015 (Local Time) from KJFK Reporting Station
Light Snow Light Snow  
Wind Chill:   Ceiling: 2000
Heat Index: 21°   Visibility: 1mi
Dew Point: 15°   Wind: 21mph
Humidity: 78%   Direction: 340°NNW
Pressure: 29.65"   Gusts: 31mph
Location:  40.72°N, 73.7°W
Report Text: KJFK 271151Z 34018G27KT 1SM -SN BLSN BKN020 OVC037 M06/M09 A2965 RMK AO2 PK WND 34028/1102 SFC VIS 1 3/4 SLP041 931030 4/009 P0001 60003 70024 T10611094 11033 21061 53003 $
Loading
Personal Weather Stations






























Interactive Weather Map New forecast layout! Learn more

10-Day Weather Forecast

Advertisements
Track Severe Weather on mobile